»·PEaware :: N210AR KSMO-KSNA

N210AR :: KSMO-KSNA

FLIGHT INFORMATION

Flight Status: Arrived
Operator: Privately registered:
United States
More flights under this callsign
Pilot: Max S. (16657)
Aircraft: CESSNA 172 SKYHAWK
(C172)
More flights by this aircraft type
Origin: KSMO Santa Monica Mun
United States
Destination: KSNA John Wayne-Orange Co
United States
More flights between these airports :: More routes between these airports
Route: +SMO VPLSR VPLHP
File this flight plan on PilotEdge
Remarks:
Altitude:
(Current/Filed)
2,500ft
Speed:
(Current/Filed)
100kts
Departed: 23-May-20 10:02 AM
Arrived: 23-May-20 10:42 AM
Distance/Time
Traveled:
36nm/0:39
Distance/Time
To Go:
Arrived

Flight Plot

Page will automatically refresh every two minutes.


Map Options




Map Legend


Flown Route
Filed Route
Departure Airport
Arrival Airport
Navaid (VOR, NDB)
Fix

Horizontal Profiles

Position Reports

Time Latitude Longitude Heading Altitude Ground
Speed
23-May-20 09:50 34.012956 -118.456182 128 178ft 0kts
23-May-20 09:51 34.012956 -118.456182 128 178ft 0kts
23-May-20 09:52 34.012956 -118.456182 128 178ft 0kts
23-May-20 09:53 34.012956 -118.456182 128 178ft 0kts
23-May-20 09:54 34.012956 -118.456182 128 178ft 0kts
23-May-20 09:55 34.013002 -118.455824 47 178ft 9kts
23-May-20 09:56 34.015460 -118.452941 44 178ft 21kts
23-May-20 09:57 34.018968 -118.448706 42 178ft 25kts
23-May-20 09:58 34.019857 -118.447668 223 178ft 7kts
23-May-20 09:59 34.019604 -118.447771 140 178ft 0kts
23-May-20 10:00 34.018411 -118.448242 218 178ft 36kts
23-May-20 10:01 34.002253 -118.466489 225 850ft 93kts
23-May-20 10:02 34.001413 -118.497736 299 1892ft 93kts
23-May-20 10:03 34.024163 -118.518711 346 2580ft 106kts
23-May-20 10:04 34.049289 -118.553866 335 2647ft 105kts
23-May-20 10:05 34.065344 -118.528096 53 2500ft 112kts
23-May-20 10:06 34.077215 -118.501992 112 2417ft 105kts
23-May-20 10:07 34.055749 -118.486679 166 2466ft 106kts
23-May-20 10:08 34.031345 -118.474607 160 2538ft 108kts
23-May-20 10:09 34.010332 -118.458949 115 2481ft 110kts
23-May-20 10:10 33.991833 -118.442298 146 2558ft 114kts
23-May-20 10:11 33.972277 -118.426907 142 2516ft 116kts
23-May-20 10:12 33.957114 -118.410291 146 2538ft 119kts
23-May-20 10:13 33.936116 -118.393626 138 2518ft 120kts
23-May-20 10:14 33.915436 -118.376750 151 2476ft 121kts
23-May-20 10:15 33.894491 -118.361200 144 2535ft 114kts
23-May-20 10:16 33.875381 -118.339337 114 2527ft 118kts
23-May-20 10:17 33.862464 -118.311954 122 2577ft 116kts
23-May-20 10:18 33.850444 -118.284076 116 3005ft 111kts
23-May-20 10:19 33.835334 -118.258237 128 3464ft 111kts
23-May-20 10:20 33.814775 -118.232417 139 3544ft 127kts
23-May-20 10:21 33.791410 -118.209049 143 3500ft 122kts
23-May-20 10:22 33.766109 -118.188811 152 3484ft 112kts
23-May-20 10:23 33.743210 -118.161257 111 3589ft 108kts
23-May-20 10:24 33.723152 -118.125039 134 3570ft 106kts
23-May-20 10:25 33.697456 -118.091777 133 3549ft 113kts
23-May-20 10:26 33.667758 -118.057830 135 3487ft 111kts
23-May-20 10:27 33.626416 -118.033743 167 2557ft 100kts
23-May-20 10:28 33.632569 -118.008858 86 2526ft 91kts
23-May-20 10:29 33.607412 -117.982341 163 2431ft 111kts
23-May-20 10:30 33.600104 -117.967309 325 1951ft 134kts
23-May-20 10:31 33.627297 -117.988500 327 1380ft 121kts
23-May-20 10:32 33.650236 -118.009631 356 967ft 103kts
23-May-20 10:33 33.658678 -117.984248 91 843ft 106kts
23-May-20 10:34 33.657450 -117.949634 81 933ft 110kts
23-May-20 10:35 33.663734 -117.919015 72 1518ft 86kts
23-May-20 10:36 33.671422 -117.894062 72 1460ft 85kts
23-May-20 10:37 33.678454 -117.873480 66 1580ft 77kts
23-May-20 10:38 33.694345 -117.855424 30 1144ft 99kts
23-May-20 10:39 33.694739 -117.859324 165 548ft 107kts
23-May-20 10:40 33.673546 -117.868307 205 60ft 61kts
23-May-20 10:41 33.672379 -117.868022 18 60ft 10kts
23-May-20 10:42 33.673636 -117.867688 28 60ft 0kts
23-May-20 10:43 33.673658 -117.867673 29 60ft 0kts
23-May-20 10:44 33.673354 -117.867210 188 60ft 7kts
23-May-20 10:45 33.670807 -117.869188 222 60ft 13kts
23-May-20 10:46 33.668190 -117.871819 174 60ft 5kts
23-May-20 10:47 33.667497 -117.870816 76 60ft 2kts
23-May-20 10:48 33.667628 -117.870696 34 60ft 0kts

Navigation Log

Ident Type
Flight plan parsing failed, navigation log unavailable